sensor_id;sensor_type;location;lat;lon;timestamp;P1;durP1;ratioP1;P2;durP2;ratioP2
66581;SDS011;53438;48.898;2.308;2023-05-18T03:01:08;11.80;;;3.85;;
66581;SDS011;53438;48.898;2.308;2023-05-18T03:03:36;9.93;;;3.58;;
66581;SDS011;53438;48.898;2.308;2023-05-18T03:06:02;8.70;;;3.50;;
66581;SDS011;53438;48.898;2.308;2023-05-18T03:08:28;8.15;;;3.33;;
66581;SDS011;53438;48.898;2.308;2023-05-18T03:10:55;9.07;;;3.40;;
66581;SDS011;53438;48.898;2.308;2023-05-18T03:13:21;7.72;;;3.45;;
66581;SDS011;53438;48.898;2.308;2023-05-18T03:15:46;11.23;;;3.60;;
66581;SDS011;53438;48.898;2.308;2023-05-18T03:18:12;11.67;;;4.30;;
66581;SDS011;53438;48.898;2.308;2023-05-18T03:20:37;8.00;;;3.30;;
66581;SDS011;53438;48.898;2.308;2023-05-18T03:23:03;6.47;;;3.40;;
66581;SDS011;53438;48.898;2.308;2023-05-18T03:25:28;9.03;;;3.80;;
66581;SDS011;53438;48.898;2.308;2023-05-18T03:27:54;11.20;;;3.90;;
66581;SDS011;53438;48.898;2.308;2023-05-18T03:30:20;7.80;;;3.65;;
66581;SDS011;53438;48.898;2.308;2023-05-18T03:32:46;6.33;;;3.40;;
66581;SDS011;53438;48.898;2.308;2023-05-18T03:35:12;8.57;;;3.53;;
66581;SDS011;53438;48.898;2.308;2023-05-18T03:37:37;14.82;;;4.18;;
66581;SDS011;53438;48.898;2.308;2023-05-18T03:42:35;9.38;;;3.83;;
66581;SDS011;53438;48.898;2.308;2023-05-18T03:45:00;7.93;;;3.50;;
66581;SDS011;53438;48.898;2.308;2023-05-18T03:47:26;11.38;;;4.60;;
66581;SDS011;53438;48.898;2.308;2023-05-18T03:49:51;8.75;;;3.63;;
66581;SDS011;53438;48.898;2.308;2023-05-18T03:52:16;13.40;;;4.33;;
66581;SDS011;53438;48.898;2.308;2023-05-18T03:54:46;10.37;;;4.03;;
66581;SDS011;53438;48.898;2.308;2023-05-18T03:57:15;10.48;;;3.67;;
66581;SDS011;53438;48.898;2.308;2023-05-18T03:59:41;11.25;;;3.60;;
66581;SDS011;53438;48.898;2.308;2023-05-18T04:02:07;10.07;;;3.97;;
66581;SDS011;53438;48.898;2.308;2023-05-18T04:04:32;9.00;;;3.77;;
66581;SDS011;53438;48.898;2.308;2023-05-18T04:06:58;14.50;;;3.83;;
66581;SDS011;53438;48.898;2.308;2023-05-18T04:09:26;10.45;;;3.80;;
66581;SDS011;53438;48.898;2.308;2023-05-18T04:11:52;12.68;;;4.00;;
66581;SDS011;53438;48.898;2.308;2023-05-18T04:14:17;13.43;;;4.47;;
66581;SDS011;53438;48.898;2.308;2023-05-18T04:16:44;11.48;;;4.00;;
66581;SDS011;53438;48.898;2.308;2023-05-18T04:19:10;9.20;;;4.00;;
66581;SDS011;53438;48.898;2.308;2023-05-18T04:21:37;11.23;;;4.25;;
66581;SDS011;53438;48.898;2.308;2023-05-18T04:24:02;13.03;;;4.83;;
66581;SDS011;53438;48.898;2.308;2023-05-18T04:26:29;13.57;;;4.57;;
66581;SDS011;53438;48.898;2.308;2023-05-18T04:28:55;10.20;;;4.10;;
66581;SDS011;53438;48.898;2.308;2023-05-18T04:31:24;18.10;;;4.15;;
66581;SDS011;53438;48.898;2.308;2023-05-18T04:33:51;12.18;;;4.10;;
66581;SDS011;53438;48.898;2.308;2023-05-18T04:36:17;11.63;;;3.60;;
66581;SDS011;53438;48.898;2.308;2023-05-18T04:38:44;10.38;;;4.10;;
66581;SDS011;53438;48.898;2.308;2023-05-18T04:41:09;13.23;;;3.83;;
66581;SDS011;53438;48.898;2.308;2023-05-18T04:43:35;11.03;;;4.03;;
66581;SDS011;53438;48.898;2.308;2023-05-18T04:46:01;11.90;;;4.70;;
66581;SDS011;53438;48.898;2.308;2023-05-18T04:48:26;11.03;;;4.30;;
66581;SDS011;53438;48.898;2.308;2023-05-18T04:50:53;8.45;;;4.60;;
66581;SDS011;53438;48.898;2.308;2023-05-18T04:53:20;12.85;;;4.50;;
66581;SDS011;53438;48.898;2.308;2023-05-18T04:55:49;9.37;;;4.33;;
66581;SDS011;53438;48.898;2.308;2023-05-18T04:58:14;12.40;;;4.30;;
66581;SDS011;53438;48.898;2.308;2023-05-18T05:00:40;14.27;;;4.80;;
66581;SDS011;53438;48.898;2.308;2023-05-18T05:03:06;11.27;;;4.60;;
66581;SDS011;53438;48.898;2.308;2023-05-18T05:05:32;9.70;;;4.60;;
66581;SDS011;53438;48.898;2.308;2023-05-18T05:07:58;13.67;;;4.33;;
66581;SDS011;53438;48.898;2.308;2023-05-18T05:10:23;13.77;;;4.63;;
66581;SDS011;53438;48.898;2.308;2023-05-18T05:12:49;9.13;;;4.30;;
66581;SDS011;53438;48.898;2.308;2023-05-18T05:15:15;12.07;;;5.00;;
66581;SDS011;53438;48.898;2.308;2023-05-18T05:17:40;10.52;;;4.93;;
66581;SDS011;53438;48.898;2.308;2023-05-18T05:20:06;9.70;;;4.90;;
66581;SDS011;53438;48.898;2.308;2023-05-18T05:22:31;13.38;;;4.70;;
66581;SDS011;53438;48.898;2.308;2023-05-18T05:24:57;13.37;;;4.97;;
66581;SDS011;53438;48.898;2.308;2023-05-18T05:27:22;15.57;;;4.13;;
66581;SDS011;53438;48.898;2.308;2023-05-18T05:29:50;13.90;;;4.72;;
66581;SDS011;53438;48.898;2.308;2023-05-18T05:32:15;13.20;;;4.93;;
66581;SDS011;53438;48.898;2.308;2023-05-18T05:34:41;16.60;;;5.17;;
66581;SDS011;53438;48.898;2.308;2023-05-18T05:37:12;10.57;;;5.00;;
66581;SDS011;53438;48.898;2.308;2023-05-18T05:39:38;11.30;;;4.15;;
66581;SDS011;53438;48.898;2.308;2023-05-18T05:42:04;12.50;;;4.77;;
66581;SDS011;53438;48.898;2.308;2023-05-18T05:44:30;16.45;;;5.05;;
66581;SDS011;53438;48.898;2.308;2023-05-18T05:46:55;9.30;;;4.70;;
66581;SDS011;53438;48.898;2.308;2023-05-18T05:49:21;13.00;;;5.20;;
66581;SDS011;53438;48.898;2.308;2023-05-18T05:51:46;15.60;;;4.97;;
66581;SDS011;53438;48.898;2.308;2023-05-18T05:54:11;14.10;;;5.28;;
66581;SDS011;53438;48.898;2.308;2023-05-18T05:56:37;13.43;;;6.73;;
66581;SDS011;53438;48.898;2.308;2023-05-18T05:59:02;15.60;;;4.67;;
66581;SDS011;53438;48.898;2.308;2023-05-18T06:01:27;13.47;;;4.93;;
66581;SDS011;53438;48.898;2.308;2023-05-18T06:03:53;12.40;;;4.87;;
66581;SDS011;53438;48.898;2.308;2023-05-18T06:06:18;13.67;;;4.83;;
66581;SDS011;53438;48.898;2.308;2023-05-18T06:08:43;8.85;;;4.25;;
66581;SDS011;53438;48.898;2.308;2023-05-18T06:11:09;12.15;;;5.18;;
66581;SDS011;53438;48.898;2.308;2023-05-18T06:13:35;12.33;;;4.97;;
66581;SDS011;53438;48.898;2.308;2023-05-18T06:16:00;14.27;;;5.40;;
66581;SDS011;53438;48.898;2.308;2023-05-18T06:18:25;16.58;;;4.68;;
66581;SDS011;53438;48.898;2.308;2023-05-18T06:20:51;12.30;;;4.43;;
66581;SDS011;53438;48.898;2.308;2023-05-18T06:23:16;14.93;;;5.07;;
66581;SDS011;53438;48.898;2.308;2023-05-18T06:25:46;13.88;;;5.32;;
66581;SDS011;53438;48.898;2.308;2023-05-18T06:28:13;11.37;;;4.60;;
66581;SDS011;53438;48.898;2.308;2023-05-18T06:30:39;15.32;;;5.07;;
66581;SDS011;53438;48.898;2.308;2023-05-18T06:33:05;12.93;;;5.93;;
66581;SDS011;53438;48.898;2.308;2023-05-18T06:35:31;12.57;;;4.80;;
66581;SDS011;53438;48.898;2.308;2023-05-18T06:37:56;16.55;;;5.10;;
66581;SDS011;53438;48.898;2.308;2023-05-18T06:40:22;16.27;;;5.43;;
66581;SDS011;53438;48.898;2.308;2023-05-18T06:42:47;15.87;;;5.47;;
66581;SDS011;53438;48.898;2.308;2023-05-18T06:45:13;15.63;;;5.23;;
66581;SDS011;53438;48.898;2.308;2023-05-18T06:47:39;13.48;;;4.70;;
66581;SDS011;53438;48.898;2.308;2023-05-18T06:50:06;11.93;;;5.13;;
66581;SDS011;53438;48.898;2.308;2023-05-18T06:52:31;10.00;;;4.60;;
66581;SDS011;53438;48.898;2.308;2023-05-18T06:54:57;15.53;;;4.67;;
66581;SDS011;53438;48.898;2.308;2023-05-18T06:57:23;12.55;;;4.85;;
66581;SDS011;53438;48.898;2.308;2023-05-18T06:59:48;13.60;;;4.87;;
66581;SDS011;53438;48.898;2.308;2023-05-18T07:02:17;13.88;;;5.10;;
66581;SDS011;53438;48.898;2.308;2023-05-18T07:04:46;14.85;;;5.07;;
66581;SDS011;53438;48.898;2.308;2023-05-18T07:07:12;13.88;;;4.80;;
66581;SDS011;53438;48.898;2.308;2023-05-18T07:09:37;14.27;;;5.43;;
66581;SDS011;53438;48.898;2.308;2023-05-18T07:12:03;14.53;;;4.80;;
66581;SDS011;53438;48.898;2.308;2023-05-18T07:14:28;17.05;;;4.80;;
66581;SDS011;53438;48.898;2.308;2023-05-18T07:16:54;12.97;;;4.53;;
66581;SDS011;53438;48.898;2.308;2023-05-18T07:19:19;12.20;;;4.63;;
66581;SDS011;53438;48.898;2.308;2023-05-18T07:21:44;17.77;;;5.50;;
66581;SDS011;53438;48.898;2.308;2023-05-18T07:24:10;10.33;;;4.23;;
66581;SDS011;53438;48.898;2.308;2023-05-18T07:26:35;16.23;;;4.90;;
66581;SDS011;53438;48.898;2.308;2023-05-18T07:29:01;17.83;;;5.68;;
66581;SDS011;53438;48.898;2.308;2023-05-18T07:31:26;12.07;;;4.75;;
66581;SDS011;53438;48.898;2.308;2023-05-18T07:33:51;16.60;;;5.33;;
66581;SDS011;53438;48.898;2.308;2023-05-18T07:36:17;16.57;;;4.73;;
66581;SDS011;53438;48.898;2.308;2023-05-18T07:38:42;12.17;;;4.70;;
66581;SDS011;53438;48.898;2.308;2023-05-18T07:41:08;14.23;;;4.67;;
66581;SDS011;53438;48.898;2.308;2023-05-18T07:43:33;12.15;;;4.47;;
66581;SDS011;53438;48.898;2.308;2023-05-18T07:45:59;19.97;;;5.13;;
66581;SDS011;53438;48.898;2.308;2023-05-18T07:48:24;11.53;;;4.73;;
66581;SDS011;53438;48.898;2.308;2023-05-18T07:50:50;16.57;;;4.50;;
66581;SDS011;53438;48.898;2.308;2023-05-18T07:53:15;12.45;;;4.07;;
66581;SDS011;53438;48.898;2.308;2023-05-18T07:55:41;14.37;;;4.40;;
66581;SDS011;53438;48.898;2.308;2023-05-18T07:58:06;14.80;;;5.80;;
66581;SDS011;53438;48.898;2.308;2023-05-18T08:00:32;12.90;;;4.03;;
66581;SDS011;53438;48.898;2.308;2023-05-18T08:02:57;17.83;;;5.82;;
66581;SDS011;53438;48.898;2.308;2023-05-18T08:05:24;13.20;;;4.38;;
66581;SDS011;53438;48.898;2.308;2023-05-18T08:07:51;15.00;;;4.28;;
66581;SDS011;53438;48.898;2.308;2023-05-18T08:10:16;11.40;;;4.03;;
66581;SDS011;53438;48.898;2.308;2023-05-18T08:12:42;13.30;;;3.90;;
66581;SDS011;53438;48.898;2.308;2023-05-18T08:15:07;13.60;;;4.43;;
66581;SDS011;53438;48.898;2.308;2023-05-18T08:17:33;17.58;;;4.50;;
66581;SDS011;53438;48.898;2.308;2023-05-18T08:19:59;13.17;;;4.43;;
66581;SDS011;53438;48.898;2.308;2023-05-18T08:22:24;12.07;;;3.90;;
66581;SDS011;53438;48.898;2.308;2023-05-18T08:24:49;14.43;;;4.18;;
66581;SDS011;53438;48.898;2.308;2023-05-18T08:27:15;8.40;;;3.92;;
66581;SDS011;53438;48.898;2.308;2023-05-18T08:29:40;9.50;;;3.77;;
66581;SDS011;53438;48.898;2.308;2023-05-18T08:32:05;12.83;;;3.90;;
66581;SDS011;53438;48.898;2.308;2023-05-18T08:34:32;12.27;;;4.03;;
66581;SDS011;53438;48.898;2.308;2023-05-18T08:36:57;11.03;;;3.27;;
66581;SDS011;53438;48.898;2.308;2023-05-18T08:39:23;14.70;;;4.32;;
66581;SDS011;53438;48.898;2.308;2023-05-18T08:41:56;12.70;;;3.80;;
66581;SDS011;53438;48.898;2.308;2023-05-18T08:44:33;14.50;;;3.78;;
66581;SDS011;53438;48.898;2.308;2023-05-18T08:47:06;9.35;;;3.08;;
66581;SDS011;53438;48.898;2.308;2023-05-18T08:49:33;12.40;;;3.20;;
66581;SDS011;53438;48.898;2.308;2023-05-18T08:51:59;11.70;;;3.33;;
66581;SDS011;53438;48.898;2.308;2023-05-18T08:54:28;10.73;;;3.90;;
66581;SDS011;53438;48.898;2.308;2023-05-18T08:56:54;9.53;;;2.70;;
66581;SDS011;53438;48.898;2.308;2023-05-18T08:59:25;13.13;;;3.65;;
66581;SDS011;53438;48.898;2.308;2023-05-18T09:01:54;12.75;;;3.63;;
66581;SDS011;53438;48.898;2.308;2023-05-18T09:04:20;14.75;;;3.47;;
66581;SDS011;53438;48.898;2.308;2023-05-18T09:06:47;12.20;;;3.17;;
66581;SDS011;53438;48.898;2.308;2023-05-18T09:09:14;11.47;;;4.10;;
66581;SDS011;53438;48.898;2.308;2023-05-18T09:11:40;11.32;;;4.10;;
66581;SDS011;53438;48.898;2.308;2023-05-18T09:14:06;10.95;;;4.03;;
66581;SDS011;53438;48.898;2.308;2023-05-18T09:16:31;12.07;;;3.67;;
66581;SDS011;53438;48.898;2.308;2023-05-18T09:18:57;11.10;;;3.80;;
66581;SDS011;53438;48.898;2.308;2023-05-18T09:21:23;11.20;;;3.60;;
66581;SDS011;53438;48.898;2.308;2023-05-18T09:23:48;12.63;;;3.80;;
66581;SDS011;53438;48.898;2.308;2023-05-18T09:26:14;12.60;;;3.42;;
66581;SDS011;53438;48.898;2.308;2023-05-18T09:28:41;12.90;;;4.25;;
66581;SDS011;53438;48.898;2.308;2023-05-18T09:31:15;13.82;;;4.03;;
66581;SDS011;53438;48.898;2.308;2023-05-18T09:33:43;14.27;;;5.27;;
66581;SDS011;53438;48.898;2.308;2023-05-18T09:36:09;14.27;;;4.20;;
66581;SDS011;53438;48.898;2.308;2023-05-18T09:38:40;8.07;;;4.15;;
66581;SDS011;53438;48.898;2.308;2023-05-18T09:41:13;14.07;;;4.13;;
66581;SDS011;53438;48.898;2.308;2023-05-18T09:43:42;11.57;;;4.28;;
66581;SDS011;53438;48.898;2.308;2023-05-18T09:46:10;13.50;;;4.67;;
66581;SDS011;53438;48.898;2.308;2023-05-18T09:48:37;11.50;;;3.88;;
66581;SDS011;53438;48.898;2.308;2023-05-18T09:51:06;13.25;;;4.70;;
66581;SDS011;53438;48.898;2.308;2023-05-18T09:53:35;14.90;;;4.67;;
66581;SDS011;53438;48.898;2.308;2023-05-18T09:56:04;11.90;;;4.45;;
66581;SDS011;53438;48.898;2.308;2023-05-18T09:58:33;15.57;;;4.50;;
66581;SDS011;53438;48.898;2.308;2023-05-18T10:01:03;13.77;;;4.97;;
66581;SDS011;53438;48.898;2.308;2023-05-18T10:03:35;10.85;;;4.30;;
66581;SDS011;53438;48.898;2.308;2023-05-18T10:06:06;12.80;;;4.05;;
66581;SDS011;53438;48.898;2.308;2023-05-18T10:08:32;9.15;;;4.30;;
66581;SDS011;53438;48.898;2.308;2023-05-18T10:10:59;13.48;;;4.60;;
66581;SDS011;53438;48.898;2.308;2023-05-18T10:13:26;11.73;;;4.27;;
66581;SDS011;53438;48.898;2.308;2023-05-18T10:15:56;12.25;;;4.57;;
66581;SDS011;53438;48.898;2.308;2023-05-18T10:18:30;12.18;;;4.85;;
66581;SDS011;53438;48.898;2.308;2023-05-18T10:20:59;12.00;;;4.85;;
66581;SDS011;53438;48.898;2.308;2023-05-18T10:23:29;13.20;;;4.28;;
66581;SDS011;53438;48.898;2.308;2023-05-18T10:25:56;13.30;;;4.43;;
66581;SDS011;53438;48.898;2.308;2023-05-18T10:28:25;12.70;;;4.05;;
66581;SDS011;53438;48.898;2.308;2023-05-18T10:31:01;16.83;;;4.40;;
66581;SDS011;53438;48.898;2.308;2023-05-18T10:33:34;13.60;;;3.97;;
66581;SDS011;53438;48.898;2.308;2023-05-18T10:36:01;17.58;;;4.80;;
66581;SDS011;53438;48.898;2.308;2023-05-18T10:38:29;8.17;;;4.47;;
66581;SDS011;53438;48.898;2.308;2023-05-18T10:40:56;13.68;;;4.10;;
66581;SDS011;53438;48.898;2.308;2023-05-18T10:43:23;13.93;;;4.80;;
66581;SDS011;53438;48.898;2.308;2023-05-18T10:45:53;14.38;;;4.53;;
66581;SDS011;53438;48.898;2.308;2023-05-18T10:48:19;12.82;;;4.05;;
66581;SDS011;53438;48.898;2.308;2023-05-18T10:50:49;11.57;;;4.57;;
66581;SDS011;53438;48.898;2.308;2023-05-18T10:53:21;11.32;;;4.35;;
66581;SDS011;53438;48.898;2.308;2023-05-18T10:55:48;12.07;;;3.75;;
66581;SDS011;53438;48.898;2.308;2023-05-18T10:58:15;11.85;;;4.18;;
66581;SDS011;53438;48.898;2.308;2023-05-18T11:00:43;11.32;;;4.25;;
66581;SDS011;53438;48.898;2.308;2023-05-18T11:03:13;10.80;;;3.90;;
66581;SDS011;53438;48.898;2.308;2023-05-18T11:05:40;13.38;;;4.93;;
66581;SDS011;53438;48.898;2.308;2023-05-18T11:08:06;15.30;;;7.10;;
66581;SDS011;53438;48.898;2.308;2023-05-18T11:10:42;8.97;;;3.93;;
66581;SDS011;53438;48.898;2.308;2023-05-18T11:13:11;11.27;;;3.88;;
66581;SDS011;53438;48.898;2.308;2023-05-18T11:18:18;9.82;;;3.20;;
66581;SDS011;53438;48.898;2.308;2023-05-18T11:20:44;13.60;;;4.10;;
66581;SDS011;53438;48.898;2.308;2023-05-18T11:23:13;9.23;;;3.60;;
66581;SDS011;53438;48.898;2.308;2023-05-18T11:25:41;15.35;;;3.70;;
66581;SDS011;53438;48.898;2.308;2023-05-18T11:28:08;9.90;;;3.28;;
66581;SDS011;53438;48.898;2.308;2023-05-18T11:38:19;11.93;;;3.78;;
66581;SDS011;53438;48.898;2.308;2023-05-18T11:43:22;6.88;;;3.53;;
66581;SDS011;53438;48.898;2.308;2023-05-18T11:45:55;9.18;;;3.60;;
66581;SDS011;53438;48.898;2.308;2023-05-18T11:48:22;8.63;;;4.03;;
66581;SDS011;53438;48.898;2.308;2023-05-18T11:50:48;11.17;;;3.80;;
66581;SDS011;53438;48.898;2.308;2023-05-18T11:53:17;12.93;;;5.60;;
66581;SDS011;53438;48.898;2.308;2023-05-18T11:55:42;15.95;;;5.68;;
66581;SDS011;53438;48.898;2.308;2023-05-18T11:58:09;10.77;;;3.60;;
66581;SDS011;53438;48.898;2.308;2023-05-18T12:00:35;11.68;;;4.07;;
66581;SDS011;53438;48.898;2.308;2023-05-18T12:03:01;11.93;;;3.50;;
66581;SDS011;53438;48.898;2.308;2023-05-18T12:05:30;11.20;;;3.90;;
66581;SDS011;53438;48.898;2.308;2023-05-18T12:07:59;12.93;;;4.10;;
66581;SDS011;53438;48.898;2.308;2023-05-18T12:10:24;11.27;;;3.90;;
66581;SDS011;53438;48.898;2.308;2023-05-18T12:12:51;10.03;;;3.60;;
66581;SDS011;53438;48.898;2.308;2023-05-18T12:15:20;8.77;;;3.92;;
66581;SDS011;53438;48.898;2.308;2023-05-18T12:17:47;9.32;;;3.13;;
66581;SDS011;53438;48.898;2.308;2023-05-18T12:22:49;9.80;;;3.83;;
66581;SDS011;53438;48.898;2.308;2023-05-18T12:25:19;10.93;;;3.72;;
66581;SDS011;53438;48.898;2.308;2023-05-18T12:27:46;10.23;;;3.65;;
66581;SDS011;53438;48.898;2.308;2023-05-18T12:32:45;8.88;;;2.92;;
66581;SDS011;53438;48.898;2.308;2023-05-18T12:35:12;7.73;;;2.77;;
66581;SDS011;53438;48.898;2.308;2023-05-18T12:37:44;10.48;;;2.70;;
66581;SDS011;53438;48.898;2.308;2023-05-18T12:40:14;9.43;;;4.20;;
66581;SDS011;53438;48.898;2.308;2023-05-18T12:42:53;10.60;;;3.72;;
66581;SDS011;53438;48.898;2.308;2023-05-18T12:45:30;15.27;;;4.03;;
66581;SDS011;53438;48.898;2.308;2023-05-18T12:48:02;9.55;;;3.45;;
66581;SDS011;53438;48.898;2.308;2023-05-18T12:50:32;7.70;;;3.00;;
66581;SDS011;53438;48.898;2.308;2023-05-18T12:52:58;8.53;;;2.97;;
66581;SDS011;53438;48.898;2.308;2023-05-18T12:55:25;10.73;;;4.53;;
66581;SDS011;53438;48.898;2.308;2023-05-18T12:58:01;11.07;;;3.65;;
66581;SDS011;53438;48.898;2.308;2023-05-18T13:00:32;9.63;;;3.75;;
66581;SDS011;53438;48.898;2.308;2023-05-18T13:03:08;11.20;;;3.92;;
66581;SDS011;53438;48.898;2.308;2023-05-18T13:05:36;11.13;;;3.23;;
66581;SDS011;53438;48.898;2.308;2023-05-18T13:08:02;7.15;;;3.13;;
66581;SDS011;53438;48.898;2.308;2023-05-18T13:10:30;8.57;;;3.53;;
66581;SDS011;53438;48.898;2.308;2023-05-18T13:12:56;11.38;;;3.60;;
66581;SDS011;53438;48.898;2.308;2023-05-18T13:15:28;9.73;;;3.60;;
66581;SDS011;53438;48.898;2.308;2023-05-18T13:18:06;8.57;;;3.03;;
66581;SDS011;53438;48.898;2.308;2023-05-18T13:23:06;12.20;;;4.20;;
66581;SDS011;53438;48.898;2.308;2023-05-18T13:25:33;9.90;;;3.58;;
66581;SDS011;53438;48.898;2.308;2023-05-18T13:27:58;12.97;;;4.23;;
66581;SDS011;53438;48.898;2.308;2023-05-18T13:30:25;11.93;;;3.70;;
66581;SDS011;53438;48.898;2.308;2023-05-18T13:32:50;9.20;;;3.83;;
66581;SDS011;53438;48.898;2.308;2023-05-18T13:35:16;9.55;;;3.47;;
66581;SDS011;53438;48.898;2.308;2023-05-18T13:37:44;14.80;;;4.20;;
66581;SDS011;53438;48.898;2.308;2023-05-18T13:40:14;15.43;;;5.28;;
66581;SDS011;53438;48.898;2.308;2023-05-18T13:42:40;8.68;;;3.60;;
66581;SDS011;53438;48.898;2.308;2023-05-18T13:45:07;11.55;;;3.72;;
66581;SDS011;53438;48.898;2.308;2023-05-18T13:47:33;13.32;;;4.80;;
66581;SDS011;53438;48.898;2.308;2023-05-18T13:49:58;9.37;;;4.20;;
66581;SDS011;53438;48.898;2.308;2023-05-18T13:52:25;7.57;;;3.40;;
66581;SDS011;53438;48.898;2.308;2023-05-18T13:54:50;11.82;;;3.42;;
66581;SDS011;53438;48.898;2.308;2023-05-18T13:57:16;10.30;;;3.50;;
66581;SDS011;53438;48.898;2.308;2023-05-18T13:59:41;10.97;;;3.10;;
66581;SDS011;53438;48.898;2.308;2023-05-18T14:02:08;14.13;;;3.50;;
66581;SDS011;53438;48.898;2.308;2023-05-18T14:04:33;11.82;;;3.67;;
66581;SDS011;53438;48.898;2.308;2023-05-18T14:06:58;8.73;;;3.30;;
66581;SDS011;53438;48.898;2.308;2023-05-18T14:09:24;11.25;;;3.20;;
66581;SDS011;53438;48.898;2.308;2023-05-18T14:11:52;10.55;;;3.60;;
66581;SDS011;53438;48.898;2.308;2023-05-18T14:14:18;9.80;;;3.60;;
66581;SDS011;53438;48.898;2.308;2023-05-18T14:16:44;10.63;;;3.05;;
66581;SDS011;53438;48.898;2.308;2023-05-18T14:19:09;10.87;;;3.00;;
66581;SDS011;53438;48.898;2.308;2023-05-18T14:21:35;8.33;;;2.83;;
66581;SDS011;53438;48.898;2.308;2023-05-18T14:24:00;10.60;;;3.40;;
66581;SDS011;53438;48.898;2.308;2023-05-18T14:26:28;7.28;;;2.80;;
66581;SDS011;53438;48.898;2.308;2023-05-18T14:28:53;7.80;;;3.00;;
66581;SDS011;53438;48.898;2.308;2023-05-18T14:31:19;6.87;;;2.93;;
66581;SDS011;53438;48.898;2.308;2023-05-18T14:33:44;9.47;;;3.27;;
66581;SDS011;53438;48.898;2.308;2023-05-18T14:36:10;8.87;;;2.90;;
66581;SDS011;53438;48.898;2.308;2023-05-18T14:38:35;8.95;;;2.97;;
66581;SDS011;53438;48.898;2.308;2023-05-18T14:41:01;7.70;;;3.30;;
66581;SDS011;53438;48.898;2.308;2023-05-18T14:43:26;8.53;;;2.67;;
66581;SDS011;53438;48.898;2.308;2023-05-18T14:45:51;7.23;;;2.70;;
66581;SDS011;53438;48.898;2.308;2023-05-18T14:48:17;10.00;;;3.10;;
66581;SDS011;53438;48.898;2.308;2023-05-18T14:50:42;10.43;;;3.30;;
66581;SDS011;53438;48.898;2.308;2023-05-18T14:53:07;9.75;;;2.97;;
66581;SDS011;53438;48.898;2.308;2023-05-18T14:55:32;9.98;;;3.28;;
66581;SDS011;53438;48.898;2.308;2023-05-18T14:57:58;7.63;;;3.13;;
66581;SDS011;53438;48.898;2.308;2023-05-18T15:00:26;10.68;;;3.63;;
66581;SDS011;53438;48.898;2.308;2023-05-18T15:02:51;12.07;;;2.80;;
66581;SDS011;53438;48.898;2.308;2023-05-18T15:05:17;10.33;;;3.10;;
66581;SDS011;53438;48.898;2.308;2023-05-18T15:07:42;5.40;;;2.60;;
66581;SDS011;53438;48.898;2.308;2023-05-18T15:10:08;8.05;;;2.63;;
66581;SDS011;53438;48.898;2.308;2023-05-18T15:12:33;6.67;;;2.87;;
66581;SDS011;53438;48.898;2.308;2023-05-18T15:14:59;8.03;;;2.30;;
66581;SDS011;53438;48.898;2.308;2023-05-18T15:17:24;8.60;;;2.23;;
66581;SDS011;53438;48.898;2.308;2023-05-18T15:19:49;9.83;;;3.13;;
66581;SDS011;53438;48.898;2.308;2023-05-18T15:22:15;6.65;;;2.90;;
66581;SDS011;53438;48.898;2.308;2023-05-18T15:24:40;8.40;;;2.80;;
66581;SDS011;53438;48.898;2.308;2023-05-18T15:27:06;10.83;;;2.80;;
66581;SDS011;53438;48.898;2.308;2023-05-18T15:29:32;9.25;;;3.05;;
66581;SDS011;53438;48.898;2.308;2023-05-18T15:31:58;11.23;;;3.10;;
66581;SDS011;53438;48.898;2.308;2023-05-18T15:34:25;6.32;;;2.83;;
66581;SDS011;53438;48.898;2.308;2023-05-18T15:36:50;8.00;;;2.70;;
66581;SDS011;53438;48.898;2.308;2023-05-18T15:39:17;7.40;;;2.72;;
66581;SDS011;53438;48.898;2.308;2023-05-18T15:41:43;9.50;;;3.03;;
66581;SDS011;53438;48.898;2.308;2023-05-18T15:44:08;9.20;;;3.77;;
66581;SDS011;53438;48.898;2.308;2023-05-18T15:46:33;9.77;;;3.30;;
66581;SDS011;53438;48.898;2.308;2023-05-18T15:49:00;5.95;;;2.70;;
66581;SDS011;53438;48.898;2.308;2023-05-18T15:51:26;7.03;;;3.27;;
66581;SDS011;53438;48.898;2.308;2023-05-18T15:53:51;10.25;;;2.90;;
66581;SDS011;53438;48.898;2.308;2023-05-18T15:56:17;9.53;;;3.27;;
66581;SDS011;53438;48.898;2.308;2023-05-18T15:58:43;11.05;;;2.72;;
66581;SDS011;53438;48.898;2.308;2023-05-18T16:01:08;7.77;;;2.80;;
66581;SDS011;53438;48.898;2.308;2023-05-18T16:03:34;8.80;;;2.90;;
66581;SDS011;53438;48.898;2.308;2023-05-18T16:06:00;9.10;;;3.20;;
66581;SDS011;53438;48.898;2.308;2023-05-18T16:08:25;7.10;;;2.77;;
66581;SDS011;53438;48.898;2.308;2023-05-18T16:10:50;8.47;;;2.87;;
66581;SDS011;53438;48.898;2.308;2023-05-18T16:13:16;8.63;;;3.10;;
66581;SDS011;53438;48.898;2.308;2023-05-18T16:15:41;10.57;;;3.25;;
66581;SDS011;53438;48.898;2.308;2023-05-18T16:18:06;8.67;;;3.67;;
66581;SDS011;53438;48.898;2.308;2023-05-18T16:20:32;10.47;;;3.70;;
66581;SDS011;53438;48.898;2.308;2023-05-18T16:22:57;10.47;;;3.63;;
66581;SDS011;53438;48.898;2.308;2023-05-18T16:25:22;9.13;;;3.30;;
66581;SDS011;53438;48.898;2.308;2023-05-18T16:27:48;10.30;;;3.70;;
66581;SDS011;53438;48.898;2.308;2023-05-18T16:30:14;10.32;;;2.97;;
66581;SDS011;53438;48.898;2.308;2023-05-18T16:32:39;10.47;;;3.27;;
66581;SDS011;53438;48.898;2.308;2023-05-18T16:35:07;8.98;;;3.30;;
66581;SDS011;53438;48.898;2.308;2023-05-18T16:37:33;9.23;;;3.37;;
66581;SDS011;53438;48.898;2.308;2023-05-18T16:39:58;8.23;;;3.60;;
66581;SDS011;53438;48.898;2.308;2023-05-18T16:42:24;8.87;;;3.40;;
66581;SDS011;53438;48.898;2.308;2023-05-18T16:44:49;8.55;;;3.53;;
66581;SDS011;53438;48.898;2.308;2023-05-18T16:47:15;10.87;;;3.87;;
66581;SDS011;53438;48.898;2.308;2023-05-18T16:49:40;9.03;;;3.37;;
66581;SDS011;53438;48.898;2.308;2023-05-18T16:52:09;9.52;;;3.67;;
66581;SDS011;53438;48.898;2.308;2023-05-18T16:54:34;10.90;;;3.70;;
66581;SDS011;53438;48.898;2.308;2023-05-18T16:57:00;8.10;;;3.93;;
66581;SDS011;53438;48.898;2.308;2023-05-18T16:59:25;7.68;;;3.00;;
66581;SDS011;53438;48.898;2.308;2023-05-18T17:01:51;11.90;;;4.13;;
66581;SDS011;53438;48.898;2.308;2023-05-18T17:04:17;10.13;;;3.20;;
66581;SDS011;53438;48.898;2.308;2023-05-18T17:06:42;11.33;;;3.83;;
66581;SDS011;53438;48.898;2.308;2023-05-18T17:09:07;11.52;;;3.88;;
66581;SDS011;53438;48.898;2.308;2023-05-18T17:11:33;9.67;;;3.73;;
66581;SDS011;53438;48.898;2.308;2023-05-18T17:13:58;8.90;;;3.73;;
66581;SDS011;53438;48.898;2.308;2023-05-18T17:16:25;6.50;;;2.63;;
66581;SDS011;53438;48.898;2.308;2023-05-18T17:18:52;13.07;;;5.75;;
66581;SDS011;53438;48.898;2.308;2023-05-18T17:21:18;7.60;;;3.20;;
66581;SDS011;53438;48.898;2.308;2023-05-18T17:23:44;9.10;;;4.20;;
66581;SDS011;53438;48.898;2.308;2023-05-18T17:26:10;10.27;;;3.20;;
66581;SDS011;53438;48.898;2.308;2023-05-18T17:28:35;9.18;;;2.80;;
66581;SDS011;53438;48.898;2.308;2023-05-18T17:31:01;9.93;;;3.00;;
66581;SDS011;53438;48.898;2.308;2023-05-18T17:33:27;7.82;;;2.90;;
66581;SDS011;53438;48.898;2.308;2023-05-18T17:35:52;12.70;;;3.27;;
66581;SDS011;53438;48.898;2.308;2023-05-18T17:38:18;9.90;;;3.13;;
66581;SDS011;53438;48.898;2.308;2023-05-18T17:40:45;12.93;;;4.60;;
66581;SDS011;53438;48.898;2.308;2023-05-18T17:43:10;12.27;;;3.33;;
66581;SDS011;53438;48.898;2.308;2023-05-18T17:45:36;6.97;;;2.63;;
66581;SDS011;53438;48.898;2.308;2023-05-18T17:48:01;8.80;;;3.10;;
66581;SDS011;53438;48.898;2.308;2023-05-18T17:50:27;9.50;;;3.17;;
66581;SDS011;53438;48.898;2.308;2023-05-18T17:52:53;7.65;;;2.80;;
66581;SDS011;53438;48.898;2.308;2023-05-18T17:55:19;8.90;;;2.72;;
66581;SDS011;53438;48.898;2.308;2023-05-18T17:57:44;8.63;;;2.50;;